メインページ
METAR-TAF:

METAR-TAF

空港 :

ブカレスト, ルーマニア

アンリ・コアンダ国際空港

緯度: 44-33N, 経度: 026-06E, 海抜: 95m

現時点の気象観測

当レポートは32分前の11:30(UTC)に作成
西の風 15kt
気温 18°C
湿度 37%
気圧 1009 hPa
視程10km以上
高度4800ftの雲は散在している

METAR: LROP 231130Z 27015KT 9999 SCT048 18/03 Q1009 BECMG SCT045CB

時間: 15:02 (12:02 UTC)

予報

当レポートは1時間2分前の11:00(UTC)に作成
予報は23日の 12時(UTC)から 24日の 12時(UTC)まで有効
西/南西の風 14kt
視程10km以上
高度4500ftの雲は散在している
23日の 12時(UTC)から 23日の 17時(UTC)まで一時的に
変向風 20kt
視程: 5000m
高度1500ftの雲は散在している
高度4500ftの雲は散在している, 積乱雲.
激しい雷雨, 雨
23日の 17時(UTC)から 23日の 19時(UTC)まで徐々に
変向風 4kt
24日の 07時(UTC)から 24日の 09時(UTC)まで徐々に
西の風 12kt

TAF: LROP 231100Z 2312/2412 25014KT 9999 SCT045 TEMPO 2312/2317 VRB20KT 5000 TSRA SCT015 SCT045CB BECMG 2317/2319 VRB04KT BECMG 2407/2409 26012KT

4,000以上の空港の気象観測と天気予報(METAR報とTAF報)

利用可能な観測所は地図上に黄色い丸と赤い丸で示す。

丸の上にカーソルを重ねると観測所名を参照できる。

次にクリックすると気象観測と天気予報を参照できる。

マップの切り替え:黒色「×」印の緑ボタンをクリックして拡大、「-」印の緑ボタンをクリックして縮小、緑色の三角印をクリックして隣りの地図に切り替え


METAR-TAF: